Time;durP1;ratioP1;P1;durP2;ratioP2;P2;SDS_P1;SDS_P2;PMS_P1;PMS_P2;Temp;Humidity;BMP_temperature;BMP_pressure;BME280_temperature;BME280_humidity;BME280_pressure;Samples;Min_cycle;Max_cycle;Signal;HPM_P1;HPM_P2
2024/01/04 00:02:44;;;;;;;64.53;37.50;;;9.80;99.90;;;;;;10089304;29;20201;-89
2024/01/04 00:07:46;;;;;;;58.03;30.23;;;10.30;99.90;;;;;;10099232;29;20208;-89
2024/01/04 00:12:48;;;;;;;44.17;25.70;;;11.10;99.90;;;;;;10127582;29;20240;-89
2024/01/04 00:17:51;;;;;;;55.30;27.30;;;11.10;99.90;;;;;;10128082;29;20590;-89
2024/01/04 00:22:53;;;;;;;41.93;26.13;;;11.30;99.90;;;;;;10133927;29;20284;-89
2024/01/04 00:27:55;;;;;;;79.93;47.20;;;10.90;99.90;;;;;;10123283;29;20284;-88
2024/01/04 00:32:57;;;;;;;33.77;19.50;;;11.10;99.90;;;;;;10121242;29;20291;-89
2024/01/04 00:38:00;;;;;;;18.60;9.63;;;11.20;99.90;;;;;;10133740;29;20236;-89
2024/01/04 00:43:03;;;;;;;75.10;43.10;;;11.50;99.90;;;;;;10126991;29;20647;-88
2024/01/04 00:48:06;;;;;;;79.63;43.53;;;11.70;99.90;;;;;;10133165;29;20213;-89
2024/01/04 00:53:09;;;;;;;43.40;26.27;;;12.10;99.90;;;;;;10133685;29;20216;-90
2024/01/04 00:58:11;;;;;;;37.90;22.57;;;12.00;99.90;;;;;;10063711;29;20225;-89
2024/01/04 01:03:13;;;;;;;40.70;23.80;;;11.70;99.90;;;;;;10093925;29;20212;-88
2024/01/04 01:08:16;;;;;;;56.60;34.40;;;11.80;99.90;;;;;;10114911;29;20203;-88
2024/01/04 01:13:20;;;;;;;47.73;26.97;;;11.80;99.90;;;;;;10094998;29;20704;-88
2024/01/04 01:18:22;;;;;;;21.13;11.37;;;11.80;99.90;;;;;;10093991;29;20233;-89
2024/01/04 01:23:24;;;;;;;47.97;27.60;;;11.40;99.90;;;;;;10093208;29;20303;-89
2024/01/04 01:28:28;;;;;;;52.20;30.97;;;11.30;99.90;;;;;;10129589;29;20213;-89
2024/01/04 01:33:30;;;;;;;19.90;12.70;;;12.40;99.90;;;;;;10063295;29;20213;-89
2024/01/04 01:38:33;;;;;;;36.60;23.77;;;12.30;99.90;;;;;;10102274;29;20325;-89
2024/01/04 01:43:35;;;;;;;54.27;33.43;;;12.30;99.90;;;;;;10055527;29;20208;-88
2024/01/04 01:48:37;;;;;;;36.70;23.87;;;12.30;99.90;;;;;;10078401;29;20224;-89
2024/01/04 01:53:40;;;;;;;51.20;31.27;;;12.20;99.90;;;;;;10093228;29;20208;-89
2024/01/04 01:58:42;;;;;;;46.40;27.73;;;12.80;99.90;;;;;;10095175;29;20638;-88
2024/01/04 02:03:44;;;;;;;44.03;27.57;;;12.60;99.90;;;;;;10068834;29;20206;-89
2024/01/04 02:08:49;;;;;;;20.20;11.20;;;13.10;99.90;;;;;;10057377;29;20656;-90
2024/01/04 02:13:51;;;;;;;19.50;12.70;;;13.00;99.90;;;;;;10098126;29;20237;-90
2024/01/04 02:18:53;;;;;;;53.83;32.23;;;13.50;99.90;;;;;;10121017;29;20232;-89
2024/01/04 02:23:55;;;;;;;26.77;17.73;;;13.20;99.90;;;;;;10129462;29;20575;-89
2024/01/04 02:28:58;;;;;;;37.23;22.57;;;12.90;99.90;;;;;;10079461;29;20688;-89
2024/01/04 02:34:00;;;;;;;29.00;17.37;;;13.00;99.90;;;;;;10052128;29;20237;-89
2024/01/04 02:39:02;;;;;;;38.37;23.77;;;12.70;99.90;;;;;;10116211;29;20223;-89
2024/01/04 02:44:04;;;;;;;36.77;22.47;;;13.40;99.90;;;;;;10051890;29;20230;-89
2024/01/04 02:49:07;;;;;;;41.00;26.77;;;13.20;99.90;;;;;;10083527;29;20220;-89
2024/01/04 02:54:10;;;;;;;49.27;27.23;;;13.40;99.90;;;;;;10074945;29;20209;-89
2024/01/04 02:59:12;;;;;;;30.43;20.63;;;13.50;99.90;;;;;;10100726;29;20220;-89
2024/01/04 03:04:15;;;;;;;41.37;26.10;;;13.10;99.90;;;;;;10129241;29;20208;-89
2024/01/04 03:09:17;;;;;;;44.67;27.40;;;13.40;99.90;;;;;;10116165;29;20208;-88
2024/01/04 03:14:21;;;;;;;33.80;22.73;;;13.80;99.90;;;;;;10127511;29;20263;-88
2024/01/04 03:19:23;;;;;;;26.43;18.53;;;14.00;99.90;;;;;;10128539;29;20223;-89
2024/01/04 03:24:26;;;;;;;29.07;17.37;;;14.00;99.90;;;;;;10103756;29;20566;-89
2024/01/04 03:29:28;;;;;;;36.57;21.90;;;14.20;99.90;;;;;;10090601;29;20216;-89
2024/01/04 03:34:30;;;;;;;30.53;18.73;;;14.70;99.90;;;;;;10096507;29;20198;-89
2024/01/04 03:39:32;;;;;;;18.03;12.50;;;14.40;99.90;;;;;;10118744;29;20229;-88
2024/01/04 03:44:34;;;;;;;37.83;22.93;;;14.40;99.90;;;;;;10110135;29;20579;-89
2024/01/04 03:49:36;;;;;;;28.27;19.13;;;14.60;99.90;;;;;;10105764;29;20241;-89
2024/01/04 03:54:38;;;;;;;21.80;15.27;;;14.40;99.90;;;;;;10113229;29;20737;-90
2024/01/04 03:59:40;;;;;;;35.63;19.70;;;13.80;99.90;;;;;;10118581;29;20226;-90
2024/01/04 04:04:42;;;;;;;29.93;17.80;;;13.60;99.90;;;;;;10069681;29;20260;-90
2024/01/04 04:09:44;;;;;;;33.60;21.93;;;13.60;99.90;;;;;;10115009;29;20647;-88
2024/01/04 04:14:46;;;;;;;33.00;18.90;;;14.00;99.90;;;;;;10094478;29;20329;-88
2024/01/04 04:19:48;;;;;;;30.67;18.70;;;14.30;99.90;;;;;;10126210;29;20247;-89
2024/01/04 04:24:50;;;;;;;28.20;16.97;;;14.40;99.90;;;;;;10099839;29;20497;-90
2024/01/04 04:29:52;;;;;;;23.30;16.63;;;14.60;99.90;;;;;;10097498;29;20321;-90
2024/01/04 04:34:54;;;;;;;32.87;19.30;;;14.60;99.90;;;;;;10095209;29;20200;-91
2024/01/04 04:39:56;;;;;;;23.83;14.53;;;14.50;99.90;;;;;;10093883;29;20261;-90
2024/01/04 04:45:00;;;;;;;26.07;17.10;;;14.50;99.90;;;;;;10093581;29;20758;-89
2024/01/04 04:50:03;;;;;;;26.30;17.13;;;14.70;99.90;;;;;;10094509;29;20208;-89
2024/01/04 04:55:05;;;;;;;20.93;13.83;;;14.80;99.90;;;;;;10091713;29;20269;-89
2024/01/04 05:00:11;;;;;;;25.63;16.80;;;14.60;99.90;;;;;;10090906;29;20214;-89
2024/01/04 05:05:13;;;;;;;24.43;16.43;;;14.70;99.90;;;;;;10094674;29;20730;-89
2024/01/04 05:10:15;;;;;;;23.90;16.97;;;14.90;99.90;;;;;;10090419;29;20201;-90
2024/01/04 05:15:17;;;;;;;18.30;11.37;;;14.50;99.90;;;;;;10094063;29;20603;-88
2024/01/04 05:20:20;;;;;;;27.43;14.70;;;14.60;99.90;;;;;;10092045;29;20626;-90
2024/01/04 05:25:22;;;;;;;19.67;12.80;;;14.30;99.90;;;;;;10097081;29;20204;-88
2024/01/04 05:30:24;;;;;;;21.53;15.00;;;14.20;99.90;;;;;;10094384;29;20288;-89
2024/01/04 05:35:26;;;;;;;22.40;14.33;;;14.30;99.90;;;;;;10129196;29;20216;-90
2024/01/04 05:40:29;;;;;;;15.27;10.73;;;14.40;99.90;;;;;;10061344;29;20247;-89
2024/01/04 05:45:31;;;;;;;20.10;12.37;;;13.70;99.90;;;;;;10129710;29;20769;-89
2024/01/04 05:50:34;;;;;;;14.63;9.83;;;13.50;99.90;;;;;;10095258;29;20215;-89
2024/01/04 05:55:36;;;;;;;8.77;6.17;;;13.80;99.90;;;;;;10097238;29;20664;-89
2024/01/04 06:00:38;;;;;;;13.77;10.23;;;13.30;99.90;;;;;;10098317;29;20231;-89
2024/01/04 06:05:40;;;;;;;17.03;11.80;;;12.50;99.90;;;;;;10127258;29;20209;-89
2024/01/04 06:10:43;;;;;;;15.03;10.60;;;12.30;99.90;;;;;;10093912;29;20208;-90
2024/01/04 06:15:45;;;;;;;17.57;12.50;;;13.00;99.90;;;;;;10092353;29;20331;-88
2024/01/04 06:20:48;;;;;;;14.03;10.67;;;12.50;99.90;;;;;;10090840;29;20288;-89
2024/01/04 06:25:50;;;;;;;16.00;12.37;;;12.70;99.90;;;;;;10088417;29;20662;-89
2024/01/04 06:30:53;;;;;;;18.47;12.13;;;13.50;99.90;;;;;;10092122;29;20333;-92
2024/01/04 06:35:55;;;;;;;13.07;10.00;;;13.50;99.90;;;;;;10083714;29;20239;-91
2024/01/04 06:41:00;;;;;;;13.97;9.27;;;13.10;99.90;;;;;;10089506;29;20696;-90
2024/01/04 06:46:02;;;;;;;14.00;9.17;;;13.50;99.90;;;;;;10087285;29;20201;-91
2024/01/04 06:51:05;;;;;;;15.00;10.70;;;13.30;99.90;;;;;;10077268;29;20223;-92
2024/01/04 06:56:07;;;;;;;3.93;2.60;;;13.50;99.90;;;;;;10090207;29;20193;-91
2024/01/04 07:01:09;;;;;;;5.33;2.10;;;14.00;99.90;;;;;;10102133;29;20284;-90
2024/01/04 07:06:11;;;;;;;10.77;5.50;;;14.10;99.90;;;;;;10092114;29;20205;-90
2024/01/04 07:11:13;;;;;;;9.87;4.50;;;13.50;99.90;;;;;;10089728;29;20221;-90
2024/01/04 07:16:16;;;;;;;4.73;3.07;;;13.50;99.90;;;;;;10088242;29;20289;-89
2024/01/04 07:21:18;;;;;;;4.23;2.53;;;13.10;99.90;;;;;;10089092;29;20320;-89
2024/01/04 07:26:20;;;;;;;2.80;2.17;;;13.40;99.90;;;;;;10091191;29;20201;-89
2024/01/04 07:31:22;;;;;;;3.70;2.50;;;13.90;99.90;;;;;;10086627;29;20201;-90
2024/01/04 07:36:24;;;;;;;3.40;2.10;;;14.10;99.90;;;;;;10089631;29;20221;-89
2024/01/04 07:41:26;;;;;;;3.97;2.10;;;13.80;99.90;;;;;;10092626;29;20225;-90
2024/01/04 07:46:30;;;;;;;5.10;2.03;;;13.70;99.90;;;;;;10072743;29;20253;-89
2024/01/04 07:51:35;;;;;;;3.87;2.13;;;13.70;99.90;;;;;;10102819;29;20216;-90
2024/01/04 07:56:38;;;;;;;4.63;2.23;;;13.90;99.90;;;;;;10126530;29;20208;-89
2024/01/04 08:01:40;;;;;;;3.07;2.10;;;14.20;99.90;;;;;;10096263;29;20232;-90
2024/01/04 08:06:42;;;;;;;4.27;2.40;;;14.10;99.90;;;;;;10123421;29;20208;-90
2024/01/04 08:11:45;;;;;;;3.20;1.73;;;14.00;99.90;;;;;;10104754;29;20216;-89
2024/01/04 08:16:49;;;;;;;2.60;1.57;;;13.90;99.90;;;;;;10142417;29;20318;-90
2024/01/04 08:21:52;;;;;;;3.30;2.27;;;13.80;99.90;;;;;;10124115;29;20224;-90
2024/01/04 08:26:54;;;;;;;2.60;1.63;;;13.70;99.90;;;;;;10089276;29;20251;-90
2024/01/04 08:31:56;;;;;;;3.80;2.00;;;14.20;99.90;;;;;;10089410;29;20622;-89
2024/01/04 08:36:59;;;;;;;1.90;0.97;;;13.90;99.90;;;;;;10126413;29;20615;-90
2024/01/04 08:42:01;;;;;;;2.23;1.87;;;14.00;99.90;;;;;;10098486;29;20671;-89
2024/01/04 08:47:03;;;;;;;3.47;1.80;;;14.40;99.90;;;;;;10095548;29;20768;-89
2024/01/04 08:52:05;;;;;;;4.83;1.80;;;14.80;99.90;;;;;;10124920;29;20680;-89
2024/01/04 08:57:07;;;;;;;4.10;2.10;;;15.00;99.90;;;;;;10132390;29;20211;-89
2024/01/04 09:02:10;;;;;;;4.57;2.77;;;15.00;99.90;;;;;;10131965;29;20311;-88
2024/01/04 09:07:12;;;;;;;3.23;1.70;;;15.30;99.90;;;;;;10130072;29;20658;-88
2024/01/04 09:12:15;;;;;;;2.43;1.80;;;15.10;99.90;;;;;;10123654;29;20663;-88
2024/01/04 09:17:17;;;;;;;1.83;1.37;;;15.00;99.90;;;;;;10130097;29;20567;-87
2024/01/04 09:22:19;;;;;;;2.03;1.67;;;15.30;99.90;;;;;;10106198;29;20250;-87
2024/01/04 09:27:23;;;;;;;2.13;0.93;;;15.30;99.90;;;;;;10095164;29;20698;-88
2024/01/04 09:32:26;;;;;;;3.37;1.80;;;15.30;99.90;;;;;;10109572;29;20346;-88
2024/01/04 09:37:28;;;;;;;1.97;1.30;;;15.50;99.90;;;;;;10117814;29;20304;-88
2024/01/04 09:42:33;;;;;;;1.33;0.93;;;15.60;99.90;;;;;;10098274;29;20279;-89
2024/01/04 09:47:39;;;;;;;1.20;1.03;;;15.30;99.90;;;;;;10093675;29;20200;-86
2024/01/04 09:52:44;;;;;;;1.33;1.10;;;15.40;99.90;;;;;;10090787;29;20201;-89
2024/01/04 09:57:46;;;;;;;3.33;1.07;;;15.60;99.90;;;;;;10092381;29;20690;-88
2024/01/04 10:02:49;;;;;;;1.27;0.87;;;15.30;99.90;;;;;;10105920;29;20236;-90
2024/01/04 10:08:15;;;;;;;2.20;1.37;;;15.10;99.90;;;;;;10104509;29;20185;-91
2024/01/04 10:13:17;;;;;;;2.80;0.93;;;15.20;99.90;;;;;;10089406;29;20717;-86
2024/01/04 10:18:19;;;;;;;1.63;1.50;;;15.10;99.90;;;;;;10087254;29;20217;-86
2024/01/04 10:23:21;;;;;;;1.87;1.60;;;14.90;99.90;;;;;;10087910;29;20667;-85
2024/01/04 10:28:23;;;;;;;4.97;1.77;;;14.80;99.90;;;;;;10091117;29;20220;-85
2024/01/04 10:33:25;;;;;;;2.30;1.33;;;14.80;99.90;;;;;;10089309;29;20216;-86
2024/01/04 10:38:31;;;;;;;1.30;1.10;;;15.00;99.90;;;;;;10089889;29;20229;-86
2024/01/04 10:43:34;;;;;;;2.10;1.80;;;14.80;99.90;;;;;;10086471;29;20747;-86
2024/01/04 10:48:41;;;;;;;1.37;0.97;;;15.10;99.90;;;;;;10089109;29;20205;-86
2024/01/04 10:53:44;;;;;;;2.87;1.47;;;15.20;99.90;;;;;;10065560;29;20213;-86
2024/01/04 10:58:49;;;;;;;3.00;0.93;;;15.20;99.90;;;;;;10088776;29;20221;-86
2024/01/04 11:03:55;;;;;;;1.30;1.20;;;14.90;99.90;;;;;;10089278;29;20731;-86
2024/01/04 11:08:57;;;;;;;2.10;1.10;;;15.30;99.90;;;;;;10094435;29;20208;-85
2024/01/04 11:13:59;;;;;;;1.53;0.90;;;14.90;99.90;;;;;;10128149;29;20240;-86
2024/01/04 11:19:07;;;;;;;2.67;1.03;;;14.80;99.90;;;;;;10106684;29;20248;-90
2024/01/04 11:24:30;;;;;;;1.33;0.70;;;14.20;99.90;;;;;;10090814;29;20579;-87
2024/01/04 11:29:33;;;;;;;1.73;0.70;;;13.90;99.90;;;;;;10112483;29;20241;-87
2024/01/04 11:34:36;;;;;;;1.07;0.80;;;13.70;99.90;;;;;;10089856;29;20217;-86
2024/01/04 11:39:57;;;;;;;1.33;0.77;;;13.80;99.90;;;;;;10090418;29;20312;-87
2024/01/04 11:45:00;;;;;;;1.47;0.97;;;13.80;99.90;;;;;;10090241;29;20287;-87
2024/01/04 11:50:03;;;;;;;1.80;0.67;;;13.20;99.90;;;;;;10105768;29;20243;-86
2024/01/04 11:55:25;;;;;;;2.00;0.93;;;13.40;99.90;;;;;;10092522;29;20209;-87
2024/01/04 12:00:34;;;;;;;2.30;0.83;;;13.90;99.90;;;;;;10100656;29;20216;-86
2024/01/04 12:05:37;;;;;;;1.50;0.80;;;13.70;99.90;;;;;;10072387;29;20208;-87
2024/01/04 12:10:40;;;;;;;0.97;0.60;;;13.10;99.90;;;;;;10088813;29;20291;-88
2024/01/04 12:15:42;;;;;;;1.60;0.70;;;13.10;99.90;;;;;;10093289;29;20229;-85
2024/01/04 12:20:45;;;;;;;2.67;1.07;;;13.00;99.90;;;;;;10094986;29;20229;-86
2024/01/04 12:25:47;;;;;;;2.20;0.93;;;12.50;99.90;;;;;;10097653;29;20237;-86
2024/01/04 12:30:49;;;;;;;0.93;0.50;;;12.50;99.90;;;;;;10102733;29;20236;-86
2024/01/04 12:35:59;;;;;;;0.70;0.60;;;13.10;99.90;;;;;;10096640;29;20658;-87
2024/01/04 12:41:02;;;;;;;0.80;0.40;;;13.10;99.90;;;;;;10097989;29;20225;-86
2024/01/04 12:46:05;;;;;;;0.77;0.30;;;12.80;99.90;;;;;;10095977;29;20197;-86
2024/01/04 12:51:14;;;;;;;0.77;0.47;;;13.20;99.90;;;;;;10092519;29;20205;-89
2024/01/04 12:56:20;;;;;;;0.50;0.50;;;13.70;99.90;;;;;;10115349;29;20211;-87
2024/01/04 13:01:23;;;;;;;1.23;1.00;;;14.00;99.90;;;;;;10111992;29;20273;-90
2024/01/04 13:06:27;;;;;;;1.30;0.77;;;13.60;99.90;;;;;;10094404;29;20216;-88
2024/01/04 13:11:30;;;;;;;2.20;0.93;;;13.70;99.90;;;;;;10062595;29;20240;-87
2024/01/04 13:16:32;;;;;;;2.60;0.97;;;13.80;99.90;;;;;;10094201;29;20327;-87
2024/01/04 13:21:34;;;;;;;2.10;1.30;;;;;;;;;;10094575;29;20237;-89
2024/01/04 13:26:36;;;;;;;3.03;1.23;;;10.30;99.90;;;;;;10056724;29;20197;-89
2024/01/04 13:31:41;;;;;;;1.67;0.83;;;12.00;99.90;;;;;;10056873;29;20202;-88
2024/01/04 13:36:43;;;;;;;1.20;0.70;;;12.50;99.90;;;;;;10056074;29;20205;-89
2024/01/04 13:41:46;;;;;;;3.10;0.70;;;12.60;99.90;;;;;;10056462;29;20234;-90
2024/01/04 13:46:48;;;;;;;1.13;0.73;;;12.60;99.90;;;;;;10074907;29;20913;-89
2024/01/04 13:51:50;;;;;;;1.67;0.90;;;12.80;99.90;;;;;;10092455;29;20202;-87
2024/01/04 13:56:52;;;;;;;2.27;1.00;;;12.90;99.90;;;;;;10098878;29;20571;-90
2024/01/04 14:01:54;;;;;;;1.57;1.03;;;12.50;99.90;;;;;;10103504;29;20323;-87
2024/01/04 14:06:56;;;;;;;2.83;1.57;;;12.30;99.90;;;;;;10111354;29;20679;-89
2024/01/04 14:11:58;;;;;;;5.93;1.63;;;12.60;99.90;;;;;;10102483;29;20678;-86
2024/01/04 14:17:02;;;;;;;6.17;2.03;;;13.00;99.90;;;;;;10122428;29;20238;-89
2024/01/04 14:22:04;;;;;;;5.67;1.53;;;13.20;99.90;;;;;;10092717;29;20260;-92
2024/01/04 14:27:06;;;;;;;5.30;1.73;;;13.40;99.90;;;;;;10105545;29;20212;-88
2024/01/04 14:32:09;;;;;;;0.73;0.63;;;13.00;99.90;;;;;;10114129;29;20583;-90
2024/01/04 14:37:11;;;;;;;2.03;1.23;;;12.70;99.90;;;;;;10093019;29;20225;-89
2024/01/04 14:42:14;;;;;;;2.70;1.17;;;13.10;99.90;;;;;;10092030;29;20328;-93
2024/01/04 14:47:16;;;;;;;2.93;1.20;;;13.20;99.90;;;;;;10095483;29;20206;-92
2024/01/04 14:52:19;;;;;;;2.03;1.27;;;13.20;99.90;;;;;;10094902;29;20217;-92
2024/01/04 14:57:20;;;;;;;3.20;1.50;;;13.00;99.90;;;;;;10104499;29;20632;-90
2024/01/04 15:02:22;;;;;;;2.63;0.97;;;13.10;99.90;;;;;;10093482;29;20308;-92
2024/01/04 15:07:25;;;;;;;3.20;1.40;;;13.00;99.90;;;;;;10092809;29;20287;-93
2024/01/04 15:12:27;;;;;;;4.23;1.00;;;12.70;99.90;;;;;;10101034;29;20596;-92
2024/01/04 15:17:30;;;;;;;3.43;1.30;;;12.90;99.90;;;;;;10118803;29;20277;-90
2024/01/04 15:22:32;;;;;;;2.77;1.70;;;12.80;99.90;;;;;;10131431;29;20216;-93
2024/01/04 15:27:34;;;;;;;4.97;1.70;;;13.00;99.90;;;;;;10110401;29;20203;-93
2024/01/04 15:32:36;;;;;;;1.87;1.10;;;12.80;99.90;;;;;;10106990;29;20216;-92
2024/01/04 15:37:38;;;;;;;1.77;1.03;;;13.60;99.90;;;;;;10111864;29;20212;-93
2024/01/04 15:42:40;;;;;;;3.43;1.47;;;13.80;99.90;;;;;;10133797;29;20600;-91
2024/01/04 15:47:43;;;;;;;2.40;1.60;;;13.60;99.90;;;;;;10108522;29;20284;-91
2024/01/04 15:52:46;;;;;;;2.57;1.13;;;13.50;99.90;;;;;;10139397;29;20275;-93
2024/01/04 15:57:48;;;;;;;2.10;1.30;;;13.00;99.90;;;;;;10146799;29;20679;-92
2024/01/04 16:02:50;;;;;;;2.93;1.70;;;12.70;99.90;;;;;;10070247;29;20232;-92
2024/01/04 16:07:53;;;;;;;4.37;1.20;;;12.40;99.90;;;;;;10065139;29;20240;-91
2024/01/04 16:12:56;;;;;;;3.20;1.03;;;12.60;99.90;;;;;;10059959;29;20289;-90
2024/01/04 16:17:58;;;;;;;2.30;1.30;;;13.30;99.90;;;;;;10062660;29;20213;-83
2024/01/04 16:23:00;;;;;;;3.03;1.57;;;13.00;99.90;;;;;;10096727;29;20223;-82
2024/01/04 16:28:03;;;;;;;3.20;1.40;;;12.80;99.90;;;;;;10096682;29;20250;-82
2024/01/04 16:33:05;;;;;;;4.40;2.33;;;12.90;99.90;;;;;;10092625;29;20204;-87
2024/01/04 16:38:09;;;;;;;6.50;2.33;;;13.30;99.90;;;;;;10094980;29;20209;-85
2024/01/04 16:43:11;;;;;;;5.93;1.97;;;13.10;99.90;;;;;;10093849;29;20304;-85
2024/01/04 16:48:13;;;;;;;7.43;1.87;;;13.30;99.90;;;;;;9750747;29;9999948;-83
2024/01/04 16:53:15;;;;;;;2.73;1.57;;;13.30;99.90;;;;;;10090063;29;20983;-83
2024/01/04 16:58:18;;;;;;;4.03;2.37;;;13.20;99.90;;;;;;10090324;29;20288;-81
2024/01/04 17:03:20;;;;;;;3.83;2.80;;;12.50;99.90;;;;;;10077249;29;20312;-82
2024/01/04 17:08:23;;;;;;;3.20;2.13;;;13.20;99.90;;;;;;10092203;29;20216;-82
2024/01/04 17:13:25;;;;;;;4.20;2.23;;;12.80;99.90;;;;;;10090871;29;20293;-81
2024/01/04 17:18:27;;;;;;;4.23;2.17;;;11.90;99.90;;;;;;10092648;29;20205;-81
2024/01/04 17:23:30;;;;;;;3.77;2.60;;;12.10;99.90;;;;;;10066107;29;20233;-82
2024/01/04 17:28:37;;;;;;;4.77;2.47;;;11.60;99.90;;;;;;10053900;29;20200;-83
2024/01/04 17:33:39;;;;;;;6.77;3.03;;;12.20;99.90;;;;;;10052008;29;20206;-86
2024/01/04 17:38:41;;;;;;;3.47;3.00;;;11.60;99.90;;;;;;10077023;29;20573;-84
2024/01/04 17:43:44;;;;;;;4.07;3.20;;;10.10;99.90;;;;;;10093280;29;20316;-84
2024/01/04 17:48:46;;;;;;;5.20;3.60;;;8.30;99.90;;;;;;9749352;29;9999721;-84
2024/01/04 17:53:49;;;;;;;4.27;2.83;;;;;;;;;;10091485;29;20644;-84
2024/01/04 17:58:51;;;;;;;7.40;2.63;;;6.80;99.90;;;;;;10090236;29;20209;-84
2024/01/04 18:03:53;;;;;;;3.30;3.00;;;7.90;99.90;;;;;;10094490;29;20628;-89
2024/01/04 18:08:56;;;;;;;2.93;2.27;;;6.20;99.90;;;;;;10111328;29;20701;-86
2024/01/04 18:13:58;;;;;;;3.23;2.20;;;4.90;99.90;;;;;;10078845;29;20261;-89
2024/01/04 18:19:00;;;;;;;4.33;2.67;;;5.00;99.90;;;;;;10072806;29;20209;-91
2024/01/04 18:24:02;;;;;;;3.40;2.60;;;4.90;99.90;;;;;;10071481;29;20266;-87
2024/01/04 18:29:05;;;;;;;4.27;2.87;;;4.60;99.90;;;;;;10066503;29;20610;-89
2024/01/04 18:34:07;;;;;;;3.57;2.43;;;6.50;99.90;;;;;;10068744;29;20709;-90
2024/01/04 18:39:09;;;;;;;2.87;2.47;;;5.40;99.90;;;;;;10074507;29;20197;-90
2024/01/04 18:44:14;;;;;;;4.40;3.20;;;4.30;99.90;;;;;;10074394;29;20205;-90
2024/01/04 18:49:16;;;;;;;3.73;3.13;;;4.20;99.90;;;;;;10065305;29;20292;-90
2024/01/04 18:54:19;;;;;;;3.93;3.00;;;4.50;99.90;;;;;;10067304;29;20241;-90
2024/01/04 18:59:21;;;;;;;2.47;2.27;;;3.40;99.90;;;;;;10072760;29;20197;-88
2024/01/04 19:04:23;;;;;;;2.47;2.20;;;3.70;99.90;;;;;;10077486;29;21039;-93
2024/01/04 19:09:26;;;;;;;3.93;2.90;;;4.10;99.90;;;;;;10058743;29;20209;-88
2024/01/04 19:14:29;;;;;;;9.40;5.83;;;1.90;99.90;;;;;;10062395;29;20292;-87
2024/01/04 19:19:31;;;;;;;9.20;5.90;;;5.00;99.90;;;;;;10052248;29;20640;-88
2024/01/04 19:24:33;;;;;;;7.07;4.83;;;5.20;99.90;;;;;;10051506;29;20669;-88
2024/01/04 19:29:35;;;;;;;8.00;5.43;;;3.90;99.90;;;;;;10051516;29;20201;-87
2024/01/04 19:34:37;;;;;;;4.27;3.03;;;4.80;99.90;;;;;;10050975;29;20209;-87
2024/01/04 19:39:40;;;;;;;5.37;3.80;;;5.20;99.90;;;;;;10051203;29;20255;-87
2024/01/04 19:44:42;;;;;;;5.50;4.07;;;5.70;99.90;;;;;;10052067;29;20208;-87
2024/01/04 19:49:44;;;;;;;8.10;5.90;;;5.60;99.90;;;;;;10051788;29;20220;-88
2024/01/04 19:54:46;;;;;;;9.23;5.97;;;5.10;99.90;;;;;;10052143;29;20579;-88
2024/01/04 19:59:49;;;;;;;6.30;4.40;;;5.70;99.90;;;;;;10050652;29;20586;-88
2024/01/04 20:04:51;;;;;;;8.07;5.20;;;6.00;99.90;;;;;;10051765;29;20198;-88
2024/01/04 20:09:54;;;;;;;5.53;3.67;;;5.60;99.90;;;;;;10051614;29;20237;-89
2024/01/04 20:14:56;;;;;;;5.50;4.47;;;5.80;99.90;;;;;;10051323;29;20277;-88
2024/01/04 20:19:58;;;;;;;3.23;2.57;;;5.20;99.90;;;;;;10051163;29;20225;-88
2024/01/04 20:25:00;;;;;;;69.83;40.53;;;6.00;99.90;;;;;;10051637;29;20656;-87
2024/01/04 20:30:03;;;;;;;6.10;4.93;;;5.60;99.90;;;;;;10078924;29;20206;-87
2024/01/04 20:35:05;;;;;;;7.47;3.57;;;6.20;99.90;;;;;;10091046;29;20209;-88
2024/01/04 20:40:08;;;;;;;22.50;8.03;;;6.20;99.90;;;;;;10101338;29;20268;-89
2024/01/04 20:45:12;;;;;;;9.37;5.17;;;6.10;99.90;;;;;;10097316;29;20231;-87
2024/01/04 20:50:14;;;;;;;4.93;3.03;;;5.70;99.90;;;;;;10096887;29;20296;-88
2024/01/04 20:55:16;;;;;;;6.63;4.33;;;5.60;99.90;;;;;;10097724;29;20209;-91
2024/01/04 21:00:18;;;;;;;10.80;4.67;;;5.60;99.90;;;;;;10113076;29;20272;-91
2024/01/04 21:05:21;;;;;;;24.30;12.63;;;5.90;99.90;;;;;;10133820;29;20216;-91
2024/01/04 21:10:23;;;;;;;7.10;4.03;;;6.10;99.90;;;;;;10136257;29;20678;-91
2024/01/04 21:15:25;;;;;;;14.40;8.60;;;5.40;99.90;;;;;;10101653;29;20229;-92
2024/01/04 21:20:28;;;;;;;38.83;16.03;;;5.40;99.90;;;;;;10088728;29;20259;-89
2024/01/04 21:25:31;;;;;;;21.07;12.07;;;5.90;99.90;;;;;;10089773;29;20571;-91
2024/01/04 21:30:33;;;;;;;13.40;4.87;;;5.90;99.90;;;;;;10089051;29;20325;-89
2024/01/04 21:35:35;;;;;;;6.30;2.57;;;5.80;99.90;;;;;;10091789;29;20217;-89
2024/01/04 21:40:38;;;;;;;5.37;3.43;;;4.90;99.90;;;;;;10088154;29;20285;-90
2024/01/04 21:45:41;;;;;;;8.37;4.00;;;;;;;;;;10090262;29;20663;-89
2024/01/04 21:50:44;;;;;;;11.33;4.67;;;0.80;99.90;;;;;;10091838;29;20211;-90
2024/01/04 21:55:47;;;;;;;4.67;3.00;;;0.40;99.90;;;;;;10070429;29;20555;-89
2024/01/04 22:00:49;;;;;;;7.90;4.13;;;0.20;99.90;;;;;;10113742;29;20287;-90
2024/01/04 22:05:51;;;;;;;6.80;4.23;;;0.10;99.90;;;;;;10091649;29;20208;-88
2024/01/04 22:10:53;;;;;;;18.73;11.60;;;;;;;;;;10091734;29;20197;-88
2024/01/04 22:15:55;;;;;;;71.00;35.77;;;1.00;99.90;;;;;;10087617;29;20241;-88
2024/01/04 22:20:57;;;;;;;43.33;23.53;;;1.40;99.90;;;;;;10088344;29;20234;-90
2024/01/04 22:26:00;;;;;;;14.83;8.47;;;3.00;99.90;;;;;;9759215;29;9999997;-89
2024/01/04 22:31:02;;;;;;;11.07;7.03;;;3.00;99.90;;;;;;10095328;29;20217;-88
2024/01/04 22:36:04;;;;;;;23.83;12.73;;;2.90;99.90;;;;;;10087745;29;20220;-89
2024/01/04 22:41:06;;;;;;;37.30;20.67;;;2.70;99.90;;;;;;10078037;29;20318;-89
2024/01/04 22:46:09;;;;;;;15.57;7.03;;;3.30;99.90;;;;;;10069125;29;20208;-89
2024/01/04 22:51:11;;;;;;;6.30;3.77;;;3.40;99.90;;;;;;10096011;29;20238;-87
2024/01/04 22:56:13;;;;;;;32.63;17.63;;;2.70;99.90;;;;;;10096289;29;20213;-89
2024/01/04 23:01:15;;;;;;;30.30;18.43;;;2.70;99.90;;;;;;10093857;29;20220;-89
2024/01/04 23:06:17;;;;;;;10.03;6.37;;;2.60;99.90;;;;;;10103334;29;20200;-87
2024/01/04 23:11:20;;;;;;;38.83;21.57;;;3.10;99.90;;;;;;10081750;29;20235;-85
2024/01/04 23:16:22;;;;;;;33.93;19.57;;;3.30;99.90;;;;;;10085545;29;20269;-93
2024/01/04 23:21:25;;;;;;;23.90;14.70;;;3.60;99.90;;;;;;10101669;29;20247;-88
2024/01/04 23:26:27;;;;;;;55.47;34.57;;;3.90;99.90;;;;;;10065622;29;20206;-88
2024/01/04 23:31:28;;;;;;;29.33;18.20;;;4.80;99.90;;;;;;10056869;29;20629;-88
2024/01/04 23:36:31;;;;;;;58.00;32.37;;;5.10;99.90;;;;;;10063307;29;20215;-88
2024/01/04 23:41:34;;;;;;;39.30;23.87;;;5.40;99.90;;;;;;10097896;29;20233;-88
2024/01/04 23:46:40;;;;;;;49.20;27.43;;;5.60;99.90;;;;;;10095627;29;20204;-88
2024/01/04 23:51:42;;;;;;;42.63;25.57;;;6.20;99.90;;;;;;10095561;29;20294;-88
2024/01/04 23:56:45;;;;;;;43.17;25.33;;;7.00;99.90;;;;;;10096407;29;20209;-88
